createdAt,value
2022-10-22T00:01:20.273Z,23.40
2022-10-22T00:03:46.606Z,23.75
2022-10-22T00:06:12.975Z,22.27
2022-10-22T00:08:39.125Z,22.52
2022-10-22T00:11:13.598Z,21.30
2022-10-22T00:13:39.746Z,21.60
2022-10-22T00:16:05.892Z,22.60
2022-10-22T00:18:31.982Z,24.17
2022-10-22T00:20:58.098Z,23.98
2022-10-22T00:23:24.195Z,22.63
2022-10-22T00:25:50.294Z,23.60
2022-10-22T00:28:16.387Z,23.42
2022-10-22T00:30:42.489Z,22.73
2022-10-22T00:33:08.583Z,25.13
2022-10-22T00:35:34.688Z,24.05
2022-10-22T00:38:00.787Z,23.17
2022-10-22T00:40:26.924Z,24.05
2022-10-22T00:42:53.077Z,24.02
2022-10-22T00:45:23.701Z,21.25
2022-10-22T00:47:58.882Z,22.73
2022-10-22T00:50:30.310Z,24.20
2022-10-22T00:52:57.478Z,22.33
2022-10-22T00:55:25.512Z,22.33
2022-10-22T00:57:54.042Z,25.85
2022-10-22T01:00:20.417Z,23.42
2022-10-22T01:02:48.027Z,23.27
2022-10-22T01:05:14.129Z,24.33
2022-10-22T01:07:45.320Z,23.25
2022-10-22T01:10:52.958Z,25.50
2022-10-22T01:13:43.196Z,22.60
2022-10-22T01:16:15.474Z,23.90
2022-10-22T01:18:47.982Z,24.48
2022-10-22T19:21:21.837Z,13.52
2022-10-22T19:23:48.876Z,14.35
2022-10-22T19:26:17.258Z,14.82
2022-10-22T19:28:43.488Z,16.95
2022-10-22T19:31:12.148Z,17.63
2022-10-22T19:33:38.863Z,17.80
2022-10-22T19:36:10.302Z,18.13
2022-10-22T19:38:41.905Z,16.88
2022-10-22T19:41:10.404Z,17.88
2022-10-22T19:43:36.510Z,19.70
2022-10-22T19:46:05.382Z,21.27
2022-10-22T19:48:31.596Z,21.67
2022-10-22T19:51:00.173Z,20.17
2022-10-22T19:53:26.282Z,19.70
2022-10-22T19:55:52.438Z,22.40
2022-10-22T19:58:18.535Z,22.95
2022-10-22T20:00:45.218Z,22.67
2022-10-22T20:03:14.636Z,24.15
2022-10-22T20:05:42.700Z,22.67
2022-10-22T20:08:11.025Z,24.48
2022-10-22T20:10:37.200Z,22.35
2022-10-22T20:13:03.617Z,22.05
2022-10-22T20:15:32.246Z,20.35
2022-10-22T20:17:58.677Z,20.30
2022-10-22T20:20:26.561Z,19.77
2022-10-22T20:22:52.859Z,19.50
2022-10-22T20:25:18.962Z,19.77
2022-10-22T20:27:45.117Z,20.25
2022-10-22T20:30:11.562Z,19.55
2022-10-22T20:32:38.591Z,20.65
2022-10-22T20:35:06.575Z,21.77
2022-10-22T20:37:33.722Z,20.85
2022-10-22T20:39:59.851Z,20.58
2022-10-22T20:42:25.956Z,21.10
2022-10-22T20:44:52.039Z,20.67
2022-10-22T20:47:18.212Z,22.02
2022-10-22T20:49:44.314Z,22.73
2022-10-22T20:52:10.468Z,21.63
2022-10-22T20:54:41.427Z,22.30
2022-10-22T20:57:08.048Z,23.23
2022-10-22T20:59:35.165Z,23.08
2022-10-22T21:02:01.422Z,23.63
2022-10-22T21:04:28.517Z,23.27
2022-10-22T21:06:57.222Z,26.20
2022-10-22T21:09:24.629Z,25.88
2022-10-22T21:11:51.448Z,23.75
2022-10-22T21:14:20.078Z,24.10
2022-10-22T21:16:50.037Z,25.25
2022-10-22T21:19:17.721Z,25.88
2022-10-22T21:21:43.832Z,24.38
2022-10-22T21:24:10.132Z,23.90
2022-10-22T21:26:38.393Z,24.02
2022-10-22T21:29:04.780Z,23.10
2022-10-22T21:31:31.238Z,22.98
2022-10-22T21:33:57.344Z,22.95
2022-10-22T21:36:23.740Z,22.77
2022-10-22T21:38:51.600Z,23.52
2022-10-22T21:41:20.123Z,21.42
2022-10-22T21:43:46.462Z,21.85
2022-10-22T21:46:18.785Z,21.90
2022-10-22T21:48:45.738Z,20.88
2022-10-22T21:51:15.083Z,21.27
2022-10-22T21:53:42.038Z,20.23
2022-10-22T21:56:15.340Z,20.80
2022-10-22T21:58:41.583Z,21.08
2022-10-22T22:01:07.717Z,21.33
2022-10-22T22:03:34.292Z,20.20
2022-10-22T22:06:01.843Z,20.23
2022-10-22T22:08:28.808Z,20.35
2022-10-22T22:11:02.311Z,20.30
2022-10-22T22:13:28.510Z,20.95
2022-10-22T22:15:59.519Z,19.05
2022-10-22T22:18:25.624Z,18.98
2022-10-22T22:20:51.777Z,18.05
2022-10-22T22:23:17.869Z,18.25
2022-10-22T22:25:44.987Z,17.75
2022-10-22T22:28:11.145Z,18.70
2022-10-22T22:30:37.256Z,17.90
2022-10-22T22:33:03.567Z,17.20
2022-10-22T22:35:29.929Z,17.13
2022-10-22T22:37:56.040Z,17.75
2022-10-22T22:40:22.147Z,17.48
2022-10-22T22:42:48.250Z,16.38
2022-10-22T22:45:14.362Z,15.48
2022-10-22T22:47:40.751Z,17.05
2022-10-22T22:50:07.717Z,16.23
2022-10-22T22:52:33.802Z,16.38
2022-10-22T22:54:59.904Z,16.55
2022-10-22T22:57:26.007Z,17.42
2022-10-22T22:59:52.172Z,17.20
2022-10-22T23:02:18.308Z,16.63
2022-10-22T23:04:44.451Z,18.27
2022-10-22T23:07:10.560Z,16.10
2022-10-22T23:09:36.658Z,17.50
2022-10-22T23:12:02.837Z,18.13
2022-10-22T23:14:28.935Z,16.85
2022-10-22T23:16:55.031Z,17.92
2022-10-22T23:19:22.851Z,16.55
2022-10-22T23:21:54.400Z,17.17
2022-10-22T23:24:25.534Z,17.08
2022-10-22T23:26:52.907Z,18.17
2022-10-22T23:29:27.831Z,17.05
2022-10-22T23:31:55.154Z,17.65
2022-10-22T23:34:23.948Z,16.98
2022-10-22T23:36:51.263Z,17.70
2022-10-22T23:39:20.036Z,17.15
2022-10-22T23:41:46.782Z,17.52
2022-10-22T23:44:13.572Z,17.88
2022-10-22T23:46:39.760Z,17.50
2022-10-22T23:49:06.869Z,17.55
2022-10-22T23:51:33.059Z,18.25
2022-10-22T23:54:01.790Z,17.55
2022-10-22T23:56:28.882Z,18.70
2022-10-22T23:58:55.368Z,18.63
